sensor_id;sensor_type;location;lat;lon;timestamp;pressure;altitude;pressure_sealevel;temperature;humidity
13124;BME280;6627;50.920;12.050;2022-10-31T00:01:25;99168.03;;;16.87;62.99
13124;BME280;6627;50.920;12.050;2022-10-31T00:03:53;99160.28;;;16.89;62.70
13124;BME280;6627;50.920;12.050;2022-10-31T00:06:22;99135.41;;;16.53;62.93
13124;BME280;6627;50.920;12.050;2022-10-31T00:08:53;99188.34;;;17.49;62.15
13124;BME280;6627;50.920;12.050;2022-10-31T00:11:21;99181.72;;;17.50;61.38
13124;BME280;6627;50.920;12.050;2022-10-31T00:13:49;99209.16;;;17.83;60.73
13124;BME280;6627;50.920;12.050;2022-10-31T00:16:18;99223.38;;;18.10;59.57
13124;BME280;6627;50.920;12.050;2022-10-31T00:18:48;99212.69;;;18.17;58.73
13124;BME280;6627;50.920;12.050;2022-10-31T00:21:16;99178.66;;;17.52;59.87
13124;BME280;6627;50.920;12.050;2022-10-31T00:23:46;99211.00;;;17.71;59.93
13124;BME280;6627;50.920;12.050;2022-10-31T00:26:14;99218.66;;;17.86;59.64
13124;BME280;6627;50.920;12.050;2022-10-31T00:28:42;99219.44;;;17.86;59.38
13124;BME280;6627;50.920;12.050;2022-10-31T00:31:12;99177.25;;;17.46;59.35
13124;BME280;6627;50.920;12.050;2022-10-31T00:33:40;99198.09;;;17.59;59.66
13124;BME280;6627;50.920;12.050;2022-10-31T00:36:11;99210.66;;;17.81;59.10
13124;BME280;6627;50.920;12.050;2022-10-31T00:38:39;99166.31;;;17.04;60.19
13124;BME280;6627;50.920;12.050;2022-10-31T00:41:08;99171.63;;;16.79;61.24
13124;BME280;6627;50.920;12.050;2022-10-31T00:43:36;99159.16;;;16.61;62.04
13124;BME280;6627;50.920;12.050;2022-10-31T00:46:04;99162.94;;;16.77;61.69
13124;BME280;6627;50.920;12.050;2022-10-31T00:48:31;99201.50;;;17.35;61.27
13124;BME280;6627;50.920;12.050;2022-10-31T00:50:59;99189.00;;;17.67;59.40
13124;BME280;6627;50.920;12.050;2022-10-31T00:53:27;99168.88;;;17.09;60.26
13124;BME280;6627;50.920;12.050;2022-10-31T00:55:55;99142.34;;;16.42;61.64
13124;BME280;6627;50.920;12.050;2022-10-31T00:58:24;99193.63;;;17.33;60.46
13124;BME280;6627;50.920;12.050;2022-10-31T01:00:51;99168.38;;;17.07;60.43
13124;BME280;6627;50.920;12.050;2022-10-31T01:03:22;99147.38;;;16.39;61.83
13124;BME280;6627;50.920;12.050;2022-10-31T01:05:57;99136.22;;;16.15;62.50
13124;BME280;6627;50.920;12.050;2022-10-31T01:08:25;99167.81;;;16.63;62.10
13124;BME280;6627;50.920;12.050;2022-10-31T01:11:01;99162.84;;;16.65;61.70
13124;BME280;6627;50.920;12.050;2022-10-31T01:13:30;99135.75;;;16.13;62.82
13124;BME280;6627;50.920;12.050;2022-10-31T01:15:59;99141.78;;;16.27;62.57
13124;BME280;6627;50.920;12.050;2022-10-31T01:18:27;99173.94;;;16.60;62.96
13124;BME280;6627;50.920;12.050;2022-10-31T01:21:00;99206.91;;;17.44;60.42
13124;BME280;6627;50.920;12.050;2022-10-31T01:23:28;99193.53;;;17.21;60.48
13124;BME280;6627;50.920;12.050;2022-10-31T01:26:00;99196.56;;;17.28;59.87
13124;BME280;6627;50.920;12.050;2022-10-31T01:28:30;99203.97;;;17.49;59.20
13124;BME280;6627;50.920;12.050;2022-10-31T01:31:01;99183.88;;;17.03;60.11
13124;BME280;6627;50.920;12.050;2022-10-31T01:33:29;99204.13;;;17.31;59.46
13124;BME280;6627;50.920;12.050;2022-10-31T01:35:56;99219.66;;;17.60;58.59
13124;BME280;6627;50.920;12.050;2022-10-31T01:38:24;99203.72;;;17.42;58.87
13124;BME280;6627;50.920;12.050;2022-10-31T01:40:52;99205.97;;;17.39;58.66
13124;BME280;6627;50.920;12.050;2022-10-31T01:43:20;99132.06;;;16.47;59.77
13124;BME280;6627;50.920;12.050;2022-10-31T01:45:52;99134.03;;;16.00;61.63
13124;BME280;6627;50.920;12.050;2022-10-31T01:48:24;99147.81;;;16.12;61.99
13124;BME280;6627;50.920;12.050;2022-10-31T01:50:57;99167.03;;;16.24;62.09
13124;BME280;6627;50.920;12.050;2022-10-31T01:53:26;99155.34;;;16.15;62.48
13124;BME280;6627;50.920;12.050;2022-10-31T01:55:53;99167.34;;;16.31;62.54
13124;BME280;6627;50.920;12.050;2022-10-31T01:58:24;99185.97;;;16.68;62.15
13124;BME280;6627;50.920;12.050;2022-10-31T02:00:55;99202.56;;;17.22;60.67
13124;BME280;6627;50.920;12.050;2022-10-31T02:03:26;99155.09;;;16.37;61.24
13124;BME280;6627;50.920;12.050;2022-10-31T02:05:55;99179.34;;;16.77;61.01
13124;BME280;6627;50.920;12.050;2022-10-31T02:08:26;99196.81;;;16.94;60.69
13124;BME280;6627;50.920;12.050;2022-10-31T02:10:56;99164.47;;;16.96;59.53
13124;BME280;6627;50.920;12.050;2022-10-31T02:13:24;99179.94;;;16.92;59.90
13124;BME280;6627;50.920;12.050;2022-10-31T02:15:56;99158.22;;;16.57;60.13
13124;BME280;6627;50.920;12.050;2022-10-31T02:18:25;99187.00;;;16.93;59.86
13124;BME280;6627;50.920;12.050;2022-10-31T02:21:07;99138.63;;;16.46;60.07
13124;BME280;6627;50.920;12.050;2022-10-31T02:24:12;99146.31;;;16.23;60.62
13124;BME280;6627;50.920;12.050;2022-10-31T02:27:08;99150.28;;;16.34;60.40
13124;BME280;6627;50.920;12.050;2022-10-31T02:30:02;99145.75;;;16.68;59.34
13124;BME280;6627;50.920;12.050;2022-10-31T02:32:38;99180.97;;;16.99;58.76
13124;BME280;6627;50.920;12.050;2022-10-31T02:35:13;99159.88;;;16.79;58.35
13124;BME280;6627;50.920;12.050;2022-10-31T02:37:49;99149.34;;;16.30;59.54
13124;BME280;6627;50.920;12.050;2022-10-31T02:40:22;99187.41;;;16.82;59.12
13124;BME280;6627;50.920;12.050;2022-10-31T02:42:59;99155.00;;;16.55;58.80
13124;BME280;6627;50.920;12.050;2022-10-31T02:45:35;99092.13;;;15.14;61.54
13124;BME280;6627;50.920;12.050;2022-10-31T02:48:11;99115.03;;;15.22;62.53
13124;BME280;6627;50.920;12.050;2022-10-31T02:50:43;99124.97;;;15.44;62.15
13124;BME280;6627;50.920;12.050;2022-10-31T02:53:15;99108.94;;;15.16;63.18
13124;BME280;6627;50.920;12.050;2022-10-31T02:55:50;99135.72;;;15.40;62.97
13124;BME280;6627;50.920;12.050;2022-10-31T02:58:21;99108.00;;;15.12;62.97
13124;BME280;6627;50.920;12.050;2022-10-31T03:01:13;99125.47;;;15.28;63.50
13124;BME280;6627;50.920;12.050;2022-10-31T03:03:54;99125.78;;;15.35;63.30
13124;BME280;6627;50.920;12.050;2022-10-31T03:06:28;99130.25;;;15.49;63.08
13124;BME280;6627;50.920;12.050;2022-10-31T03:09:06;99154.13;;;15.95;62.31
13124;BME280;6627;50.920;12.050;2022-10-31T03:11:44;99184.03;;;16.38;61.40
13124;BME280;6627;50.920;12.050;2022-10-31T03:14:19;99187.75;;;16.72;60.13
13124;BME280;6627;50.920;12.050;2022-10-31T03:16:50;99178.56;;;16.38;59.97
13124;BME280;6627;50.920;12.050;2022-10-31T03:19:24;99154.09;;;16.12;60.20
13124;BME280;6627;50.920;12.050;2022-10-31T03:21:57;99208.09;;;16.54;60.07
13124;BME280;6627;50.920;12.050;2022-10-31T03:24:29;99170.97;;;16.06;60.57
13124;BME280;6627;50.920;12.050;2022-10-31T03:26:59;99155.25;;;16.03;59.87
13124;BME280;6627;50.920;12.050;2022-10-31T03:29:30;99166.09;;;15.64;61.52
13124;BME280;6627;50.920;12.050;2022-10-31T03:32:03;99150.66;;;15.51;61.37
13124;BME280;6627;50.920;12.050;2022-10-31T03:34:34;99157.56;;;15.49;61.89
13124;BME280;6627;50.920;12.050;2022-10-31T03:37:05;99138.97;;;15.25;62.44
13124;BME280;6627;50.920;12.050;2022-10-31T03:39:34;99199.00;;;15.85;62.65
13124;BME280;6627;50.920;12.050;2022-10-31T03:42:07;99200.00;;;16.28;61.10
13124;BME280;6627;50.920;12.050;2022-10-31T03:44:36;99173.06;;;16.00;60.74
13124;BME280;6627;50.920;12.050;2022-10-31T03:47:07;99169.06;;;15.98;60.45
13124;BME280;6627;50.920;12.050;2022-10-31T03:49:36;99176.22;;;15.64;61.82
13124;BME280;6627;50.920;12.050;2022-10-31T03:52:11;99176.69;;;15.66;61.90
13124;BME280;6627;50.920;12.050;2022-10-31T03:54:43;99172.00;;;15.58;61.86
13124;BME280;6627;50.920;12.050;2022-10-31T03:57:16;99167.00;;;15.95;60.40
13124;BME280;6627;50.920;12.050;2022-10-31T03:59:51;99162.72;;;15.42;61.44
13124;BME280;6627;50.920;12.050;2022-10-31T04:02:24;99125.81;;;15.01;61.83
13124;BME280;6627;50.920;12.050;2022-10-31T04:04:54;99126.75;;;14.79;63.15
13124;BME280;6627;50.920;12.050;2022-10-31T04:07:26;99172.34;;;15.48;62.43
13124;BME280;6627;50.920;12.050;2022-10-31T04:09:57;99122.44;;;15.12;61.91
13124;BME280;6627;50.920;12.050;2022-10-31T04:12:28;99125.63;;;14.80;63.70
13124;BME280;6627;50.920;12.050;2022-10-31T04:14:57;99118.72;;;15.00;62.72
13124;BME280;6627;50.920;12.050;2022-10-31T04:17:29;99166.25;;;15.51;62.48
13124;BME280;6627;50.920;12.050;2022-10-31T04:20:01;99130.28;;;15.31;62.16
13124;BME280;6627;50.920;12.050;2022-10-31T04:22:29;99167.50;;;15.62;62.19
13124;BME280;6627;50.920;12.050;2022-10-31T04:24:57;99185.13;;;16.08;61.06
13124;BME280;6627;50.920;12.050;2022-10-31T04:27:25;99190.16;;;16.35;59.84
13124;BME280;6627;50.920;12.050;2022-10-31T04:29:52;99191.81;;;16.19;59.85
13124;BME280;6627;50.920;12.050;2022-10-31T04:32:20;99116.00;;;15.26;60.57
13124;BME280;6627;50.920;12.050;2022-10-31T04:34:48;99166.88;;;15.30;62.26
13124;BME280;6627;50.920;12.050;2022-10-31T04:37:17;99160.47;;;15.35;61.63
13124;BME280;6627;50.920;12.050;2022-10-31T04:39:44;99123.22;;;14.78;62.04
13124;BME280;6627;50.920;12.050;2022-10-31T04:42:12;99128.19;;;14.76;62.60
13124;BME280;6627;50.920;12.050;2022-10-31T04:44:40;99112.44;;;14.56;63.14
13124;BME280;6627;50.920;12.050;2022-10-31T04:47:08;99111.66;;;14.64;62.94
13124;BME280;6627;50.920;12.050;2022-10-31T04:49:35;99124.03;;;14.79;63.09
13124;BME280;6627;50.920;12.050;2022-10-31T04:52:03;99128.53;;;14.75;63.11
13124;BME280;6627;50.920;12.050;2022-10-31T04:54:32;99149.53;;;15.26;61.99
13124;BME280;6627;50.920;12.050;2022-10-31T04:57:00;99128.19;;;14.85;62.54
13124;BME280;6627;50.920;12.050;2022-10-31T04:59:27;99160.47;;;15.44;61.64
13124;BME280;6627;50.920;12.050;2022-10-31T05:01:55;99182.81;;;15.72;60.82
13124;BME280;6627;50.920;12.050;2022-10-31T05:04:22;99099.47;;;14.53;62.05
13124;BME280;6627;50.920;12.050;2022-10-31T05:06:50;99137.47;;;14.67;63.29
13124;BME280;6627;50.920;12.050;2022-10-31T05:09:17;99055.34;;;13.31;65.48
13124;BME280;6627;50.920;12.050;2022-10-31T05:11:46;99103.38;;;13.58;66.56
13124;BME280;6627;50.920;12.050;2022-10-31T05:14:14;99114.19;;;14.03;65.75
13124;BME280;6627;50.920;12.050;2022-10-31T05:16:42;99117.44;;;14.23;65.19
13124;BME280;6627;50.920;12.050;2022-10-31T05:19:09;99121.63;;;14.29;65.04
13124;BME280;6627;50.920;12.050;2022-10-31T05:21:38;99133.75;;;14.54;64.07
13124;BME280;6627;50.920;12.050;2022-10-31T05:24:06;99066.16;;;13.76;64.98
13124;BME280;6627;50.920;12.050;2022-10-31T05:26:34;99156.09;;;14.91;63.62
13124;BME280;6627;50.920;12.050;2022-10-31T05:29:03;99145.03;;;14.78;63.06
13124;BME280;6627;50.920;12.050;2022-10-31T05:31:30;99128.53;;;14.26;63.71
13124;BME280;6627;50.920;12.050;2022-10-31T05:33:58;99146.19;;;14.37;64.23
13124;BME280;6627;50.920;12.050;2022-10-31T05:36:26;99165.59;;;14.84;63.35
13124;BME280;6627;50.920;12.050;2022-10-31T05:38:53;99124.72;;;14.45;62.96
13124;BME280;6627;50.920;12.050;2022-10-31T05:41:21;99126.63;;;13.96;64.32
13124;BME280;6627;50.920;12.050;2022-10-31T05:43:48;99157.66;;;14.48;63.83
13124;BME280;6627;50.920;12.050;2022-10-31T05:46:17;99155.94;;;14.78;62.48
13124;BME280;6627;50.920;12.050;2022-10-31T05:48:45;99111.34;;;13.77;64.23
13124;BME280;6627;50.920;12.050;2022-10-31T05:51:13;99127.97;;;13.76;65.11
13124;BME280;6627;50.920;12.050;2022-10-31T05:53:40;99168.09;;;14.63;63.75
13124;BME280;6627;50.920;12.050;2022-10-31T05:56:08;99188.72;;;15.13;62.77
13124;BME280;6627;50.920;12.050;2022-10-31T05:58:35;99178.13;;;15.20;61.45
13124;BME280;6627;50.920;12.050;2022-10-31T06:01:03;99170.09;;;15.15;60.87
13124;BME280;6627;50.920;12.050;2022-10-31T06:03:33;99133.59;;;14.59;61.31
13124;BME280;6627;50.920;12.050;2022-10-31T06:06:00;99180.97;;;14.80;61.75
13124;BME280;6627;50.920;12.050;2022-10-31T06:08:28;99131.66;;;14.11;62.38
13124;BME280;6627;50.920;12.050;2022-10-31T06:10:56;99162.88;;;14.05;63.47
13124;BME280;6627;50.920;12.050;2022-10-31T06:13:24;99197.09;;;14.59;62.83
13124;BME280;6627;50.920;12.050;2022-10-31T06:15:51;99159.66;;;14.43;62.41
13124;BME280;6627;50.920;12.050;2022-10-31T06:18:19;99201.88;;;15.02;61.71
13124;BME280;6627;50.920;12.050;2022-10-31T06:20:48;99192.09;;;15.01;61.36
13124;BME280;6627;50.920;12.050;2022-10-31T06:23:15;99137.19;;;14.28;62.31
13124;BME280;6627;50.920;12.050;2022-10-31T06:25:43;99146.19;;;13.98;63.24
13124;BME280;6627;50.920;12.050;2022-10-31T06:28:16;99153.91;;;13.73;64.61
13124;BME280;6627;50.920;12.050;2022-10-31T06:30:43;99220.31;;;14.48;64.29
13124;BME280;6627;50.920;12.050;2022-10-31T06:33:18;99150.66;;;14.33;63.29
13124;BME280;6627;50.920;12.050;2022-10-31T06:35:48;99205.25;;;15.17;61.42
13124;BME280;6627;50.920;12.050;2022-10-31T06:38:15;99225.88;;;14.83;62.92
13124;BME280;6627;50.920;12.050;2022-10-31T06:40:43;99235.28;;;15.43;61.21
13124;BME280;6627;50.920;12.050;2022-10-31T06:43:11;99127.38;;;14.19;62.03
13124;BME280;6627;50.920;12.050;2022-10-31T06:45:40;99165.25;;;13.98;63.71
13124;BME280;6627;50.920;12.050;2022-10-31T06:48:08;99194.13;;;14.47;63.20
13124;BME280;6627;50.920;12.050;2022-10-31T06:50:36;99245.75;;;15.41;61.14
13124;BME280;6627;50.920;12.050;2022-10-31T06:53:05;99242.06;;;15.54;60.34
13124;BME280;6627;50.920;12.050;2022-10-31T06:55:33;99248.00;;;15.64;59.45
13124;BME280;6627;50.920;12.050;2022-10-31T06:58:01;99222.09;;;15.36;59.52
13124;BME280;6627;50.920;12.050;2022-10-31T07:00:30;99269.53;;;15.66;59.79
13124;BME280;6627;50.920;12.050;2022-10-31T07:02:59;99251.03;;;15.63;59.21
13124;BME280;6627;50.920;12.050;2022-10-31T07:05:27;99276.13;;;15.82;59.43
13124;BME280;6627;50.920;12.050;2022-10-31T07:07:56;99250.88;;;15.51;59.52
13124;BME280;6627;50.920;12.050;2022-10-31T07:10:27;99236.72;;;15.14;60.39
13124;BME280;6627;50.920;12.050;2022-10-31T07:12:55;99211.06;;;14.58;61.92
13124;BME280;6627;50.920;12.050;2022-10-31T07:15:23;99246.75;;;14.87;62.13
13124;BME280;6627;50.920;12.050;2022-10-31T07:17:51;99320.59;;;15.74;61.33
13124;BME280;6627;50.920;12.050;2022-10-31T07:20:19;99311.63;;;16.08;59.62
13124;BME280;6627;50.920;12.050;2022-10-31T07:22:47;99296.66;;;15.88;59.65
13124;BME280;6627;50.920;12.050;2022-10-31T07:25:15;99270.28;;;15.23;61.66
13124;BME280;6627;50.920;12.050;2022-10-31T07:27:44;99262.72;;;15.29;61.51
13124;BME280;6627;50.920;12.050;2022-10-31T07:30:13;99286.69;;;15.41;61.96
13124;BME280;6627;50.920;12.050;2022-10-31T07:32:42;99363.47;;;16.60;60.41
13124;BME280;6627;50.920;12.050;2022-10-31T07:35:11;99337.75;;;16.53;59.72
13124;BME280;6627;50.920;12.050;2022-10-31T07:37:39;99381.91;;;16.89;59.38
13124;BME280;6627;50.920;12.050;2022-10-31T07:40:09;99365.09;;;16.53;60.58
13124;BME280;6627;50.920;12.050;2022-10-31T07:42:38;99397.09;;;16.78;60.73
13124;BME280;6627;50.920;12.050;2022-10-31T07:45:10;99399.09;;;16.99;60.48
13124;BME280;6627;50.920;12.050;2022-10-31T07:47:38;99377.94;;;16.70;60.90
13124;BME280;6627;50.920;12.050;2022-10-31T07:50:08;99380.34;;;16.62;61.32
13124;BME280;6627;50.920;12.050;2022-10-31T07:52:36;99382.28;;;16.62;61.61
13124;BME280;6627;50.920;12.050;2022-10-31T07:55:04;99409.94;;;17.33;60.54
13124;BME280;6627;50.920;12.050;2022-10-31T07:57:32;99397.94;;;17.08;60.54
13124;BME280;6627;50.920;12.050;2022-10-31T08:00:00;99372.31;;;16.57;61.66
13124;BME280;6627;50.920;12.050;2022-10-31T08:02:30;99423.34;;;17.56;60.41
13124;BME280;6627;50.920;12.050;2022-10-31T08:04:58;99395.25;;;17.38;60.13
13124;BME280;6627;50.920;12.050;2022-10-31T08:07:29;99407.22;;;17.25;60.88
13124;BME280;6627;50.920;12.050;2022-10-31T08:09:57;99398.09;;;17.12;60.68
13124;BME280;6627;50.920;12.050;2022-10-31T08:12:25;99406.13;;;17.17;61.08
13124;BME280;6627;50.920;12.050;2022-10-31T08:14:52;99401.13;;;17.19;60.54
13124;BME280;6627;50.920;12.050;2022-10-31T08:17:20;99398.78;;;17.09;60.87
13124;BME280;6627;50.920;12.050;2022-10-31T08:19:49;99436.66;;;17.66;60.50
13124;BME280;6627;50.920;12.050;2022-10-31T08:22:17;99384.22;;;17.17;60.92
13124;BME280;6627;50.920;12.050;2022-10-31T08:24:46;99397.22;;;17.29;61.00
13124;BME280;6627;50.920;12.050;2022-10-31T08:27:14;99399.47;;;17.35;60.97
13124;BME280;6627;50.920;12.050;2022-10-31T08:29:42;99419.34;;;17.53;60.73
13124;BME280;6627;50.920;12.050;2022-10-31T08:32:10;99460.84;;;18.23;59.84
13124;BME280;6627;50.920;12.050;2022-10-31T08:34:38;99448.53;;;18.29;59.10
13124;BME280;6627;50.920;12.050;2022-10-31T08:37:07;99434.69;;;18.05;59.30
13124;BME280;6627;50.920;12.050;2022-10-31T08:39:35;99478.50;;;18.55;58.87
13124;BME280;6627;50.920;12.050;2022-10-31T08:42:04;99487.66;;;18.80;58.07
13124;BME280;6627;50.920;12.050;2022-10-31T08:44:32;99439.25;;;18.43;58.42
13124;BME280;6627;50.920;12.050;2022-10-31T08:46:59;99444.59;;;18.18;59.55
13124;BME280;6627;50.920;12.050;2022-10-31T08:49:27;99416.97;;;17.73;60.40
13124;BME280;6627;50.920;12.050;2022-10-31T08:51:55;99491.13;;;18.89;59.37
13124;BME280;6627;50.920;12.050;2022-10-31T08:54:24;99445.44;;;18.52;59.43
13124;BME280;6627;50.920;12.050;2022-10-31T08:56:54;99418.91;;;18.02;60.25
13124;BME280;6627;50.920;12.050;2022-10-31T08:59:22;99466.41;;;18.77;59.86
13124;BME280;6627;50.920;12.050;2022-10-31T09:01:50;99511.31;;;19.06;59.41
13124;BME280;6627;50.920;12.050;2022-10-31T09:04:17;99431.25;;;19.04;57.84
13124;BME280;6627;50.920;12.050;2022-10-31T09:06:45;99476.31;;;19.60;57.12
13124;BME280;6627;50.920;12.050;2022-10-31T09:09:13;99546.00;;;20.01;56.92
13124;BME280;6627;50.920;12.050;2022-10-31T09:11:42;99484.81;;;19.68;57.00
13124;BME280;6627;50.920;12.050;2022-10-31T09:14:09;99546.56;;;20.19;56.79
13124;BME280;6627;50.920;12.050;2022-10-31T09:16:37;99455.13;;;19.49;57.21
13124;BME280;6627;50.920;12.050;2022-10-31T09:19:05;99511.84;;;20.14;56.80
13124;BME280;6627;50.920;12.050;2022-10-31T09:21:33;99529.50;;;20.66;55.20
13124;BME280;6627;50.920;12.050;2022-10-31T09:24:00;99544.50;;;21.09;54.50
13124;BME280;6627;50.920;12.050;2022-10-31T09:26:28;99544.78;;;21.48;52.82
13124;BME280;6627;50.920;12.050;2022-10-31T09:28:59;99518.28;;;21.59;52.37
13124;BME280;6627;50.920;12.050;2022-10-31T09:31:28;99539.81;;;22.01;51.88
13124;BME280;6627;50.920;12.050;2022-10-31T09:33:56;99484.47;;;21.94;51.75
13124;BME280;6627;50.920;12.050;2022-10-31T09:36:24;99456.09;;;21.77;51.84
13124;BME280;6627;50.920;12.050;2022-10-31T09:38:52;99359.06;;;21.36;51.29
13124;BME280;6627;50.920;12.050;2022-10-31T09:41:24;99406.59;;;21.65;51.13
13124;BME280;6627;50.920;12.050;2022-10-31T09:44:04;99329.09;;;21.19;51.73
13124;BME280;6627;50.920;12.050;2022-10-31T09:46:52;99439.94;;;22.11;51.05
13124;BME280;6627;50.920;12.050;2022-10-31T09:49:40;99485.97;;;22.61;50.10
13124;BME280;6627;50.920;12.050;2022-10-31T09:52:19;99444.19;;;22.44;50.18
13124;BME280;6627;50.920;12.050;2022-10-31T09:54:52;99418.25;;;22.48;49.79
13124;BME280;6627;50.920;12.050;2022-10-31T09:57:27;99219.28;;;20.51;52.11
13124;BME280;6627;50.920;12.050;2022-10-31T09:59:58;99306.00;;;21.08;52.32
13124;BME280;6627;50.920;12.050;2022-10-31T10:02:30;99347.22;;;21.52;52.28
13124;BME280;6627;50.920;12.050;2022-10-31T10:05:02;99363.41;;;21.88;50.64
13124;BME280;6627;50.920;12.050;2022-10-31T10:07:39;99469.91;;;22.48;51.04
13124;BME280;6627;50.920;12.050;2022-10-31T10:10:14;99281.06;;;21.52;50.59
13124;BME280;6627;50.920;12.050;2022-10-31T10:12:55;99340.91;;;22.06;50.21
13124;BME280;6627;50.920;12.050;2022-10-31T10:15:45;99337.94;;;21.60;51.66
13124;BME280;6627;50.920;12.050;2022-10-31T10:18:25;99414.25;;;22.65;50.41
13124;BME280;6627;50.920;12.050;2022-10-31T10:21:03;99375.94;;;21.86;51.59
13124;BME280;6627;50.920;12.050;2022-10-31T10:23:44;99393.72;;;21.88;51.75
13124;BME280;6627;50.920;12.050;2022-10-31T10:26:18;99339.28;;;21.85;51.61
13124;BME280;6627;50.920;12.050;2022-10-31T10:28:50;99474.22;;;23.03;50.51
13124;BME280;6627;50.920;12.050;2022-10-31T10:31:24;99466.63;;;23.42;49.33
13124;BME280;6627;50.920;12.050;2022-10-31T10:34:01;99546.91;;;23.92;49.32
13124;BME280;6627;50.920;12.050;2022-10-31T10:36:36;99530.44;;;24.03;48.94
13124;BME280;6627;50.920;12.050;2022-10-31T10:39:11;99529.28;;;24.30;48.37
13124;BME280;6627;50.920;12.050;2022-10-31T10:41:44;99433.81;;;23.90;48.27
13124;BME280;6627;50.920;12.050;2022-10-31T10:44:27;99430.72;;;23.96;48.40
13124;BME280;6627;50.920;12.050;2022-10-31T10:47:14;99494.78;;;24.51;48.01
13124;BME280;6627;50.920;12.050;2022-10-31T10:50:00;99427.63;;;24.01;48.86
13124;BME280;6627;50.920;12.050;2022-10-31T10:52:36;99452.63;;;24.08;49.93
13124;BME280;6627;50.920;12.050;2022-10-31T10:55:16;99423.75;;;23.79;50.55
13124;BME280;6627;50.920;12.050;2022-10-31T10:57:55;99477.25;;;24.43;49.80
13124;BME280;6627;50.920;12.050;2022-10-31T11:00:24;99523.09;;;25.01;49.03
13124;BME280;6627;50.920;12.050;2022-10-31T11:02:54;99500.81;;;24.90;49.02
13124;BME280;6627;50.920;12.050;2022-10-31T11:05:30;99457.78;;;24.66;48.99
13124;BME280;6627;50.920;12.050;2022-10-31T11:08:01;99491.19;;;24.80;49.43
13124;BME280;6627;50.920;12.050;2022-10-31T11:10:28;99365.81;;;23.89;49.99
13124;BME280;6627;50.920;12.050;2022-10-31T11:13:20;99324.00;;;23.41;50.44
13124;BME280;6627;50.920;12.050;2022-10-31T11:15:53;99467.25;;;24.65;49.65
13124;BME280;6627;50.920;12.050;2022-10-31T11:18:26;99471.94;;;25.32;48.09
13124;BME280;6627;50.920;12.050;2022-10-31T11:20:57;99447.00;;;25.32;47.27
13124;BME280;6627;50.920;12.050;2022-10-31T11:23:26;99359.50;;;24.56;48.88
13124;BME280;6627;50.920;12.050;2022-10-31T11:25:56;99417.56;;;24.79;48.62
13124;BME280;6627;50.920;12.050;2022-10-31T11:28:24;99359.06;;;24.51;49.00
13124;BME280;6627;50.920;12.050;2022-10-31T11:30:54;99403.19;;;24.36;49.72
13124;BME280;6627;50.920;12.050;2022-10-31T11:33:28;99441.22;;;24.73;49.44
13124;BME280;6627;50.920;12.050;2022-10-31T11:35:57;99275.69;;;24.26;48.43
13124;BME280;6627;50.920;12.050;2022-10-31T11:38:32;99341.25;;;24.48;48.76
13124;BME280;6627;50.920;12.050;2022-10-31T11:41:11;99343.41;;;25.10;47.18
13124;BME280;6627;50.920;12.050;2022-10-31T11:43:48;99393.97;;;24.96;48.09
13124;BME280;6627;50.920;12.050;2022-10-31T11:46:21;99296.56;;;24.16;49.41
13124;BME280;6627;50.920;12.050;2022-10-31T11:48:53;99431.69;;;25.49;47.48
13124;BME280;6627;50.920;12.050;2022-10-31T11:51:25;99326.53;;;24.81;48.23
13124;BME280;6627;50.920;12.050;2022-10-31T11:53:57;99360.69;;;24.96;48.38
13124;BME280;6627;50.920;12.050;2022-10-31T11:56:25;99497.25;;;26.19;46.92
13124;BME280;6627;50.920;12.050;2022-10-31T11:58:58;99359.00;;;25.25;47.19
13124;BME280;6627;50.920;12.050;2022-10-31T12:01:28;99404.19;;;25.77;46.34
13124;BME280;6627;50.920;12.050;2022-10-31T12:04:04;99318.75;;;25.46;45.97
13124;BME280;6627;50.920;12.050;2022-10-31T12:06:35;99394.69;;;25.78;46.48
13124;BME280;6627;50.920;12.050;2022-10-31T12:09:20;99360.69;;;26.03;45.52
13124;BME280;6627;50.920;12.050;2022-10-31T12:12:07;99271.47;;;25.24;46.15
13124;BME280;6627;50.920;12.050;2022-10-31T12:14:46;99316.19;;;25.81;45.30
13124;BME280;6627;50.920;12.050;2022-10-31T12:17:18;99138.47;;;24.25;47.18
13124;BME280;6627;50.920;12.050;2022-10-31T12:20:10;99281.19;;;25.59;45.14
13124;BME280;6627;50.920;12.050;2022-10-31T12:22:47;99263.72;;;25.55;44.83
13124;BME280;6627;50.920;12.050;2022-10-31T12:25:28;99247.69;;;25.27;45.57
13124;BME280;6627;50.920;12.050;2022-10-31T12:31:01;99288.34;;;25.67;45.34
13124;BME280;6627;50.920;12.050;2022-10-31T12:33:47;99138.72;;;24.57;46.75
13124;BME280;6627;50.920;12.050;2022-10-31T12:36:38;99226.06;;;24.91;47.49
13124;BME280;6627;50.920;12.050;2022-10-31T12:39:24;99246.00;;;25.08;47.51
13124;BME280;6627;50.920;12.050;2022-10-31T12:41:59;99262.44;;;24.86;47.96
13124;BME280;6627;50.920;12.050;2022-10-31T12:44:51;99273.19;;;25.47;46.42
13124;BME280;6627;50.920;12.050;2022-10-31T12:47:38;99169.72;;;24.73;46.92
13124;BME280;6627;50.920;12.050;2022-10-31T12:50:19;99289.03;;;25.46;46.42
13124;BME280;6627;50.920;12.050;2022-10-31T12:53:00;99264.41;;;25.37;46.77
13124;BME280;6627;50.920;12.050;2022-10-31T12:55:44;99340.88;;;26.01;46.64
13124;BME280;6627;50.920;12.050;2022-10-31T12:58:21;99197.81;;;25.30;46.71
13124;BME280;6627;50.920;12.050;2022-10-31T13:00:54;99371.94;;;26.38;45.87
13124;BME280;6627;50.920;12.050;2022-10-31T13:03:32;99317.81;;;25.86;46.55
13124;BME280;6627;50.920;12.050;2022-10-31T13:06:05;99332.47;;;25.86;47.21
13124;BME280;6627;50.920;12.050;2022-10-31T13:08:39;99353.59;;;26.09;46.81
13124;BME280;6627;50.920;12.050;2022-10-31T13:11:12;99320.81;;;25.63;47.36
13124;BME280;6627;50.920;12.050;2022-10-31T13:13:45;99281.63;;;25.75;46.48
13124;BME280;6627;50.920;12.050;2022-10-31T13:16:18;99326.66;;;26.24;45.81
13124;BME280;6627;50.920;12.050;2022-10-31T13:18:49;99207.00;;;25.49;45.93
13124;BME280;6627;50.920;12.050;2022-10-31T13:21:24;99193.34;;;25.08;47.39
13124;BME280;6627;50.920;12.050;2022-10-31T13:23:58;99276.47;;;25.70;46.71
13124;BME280;6627;50.920;12.050;2022-10-31T13:26:38;99278.97;;;25.93;46.12